Time;durP1;ratioP1;P1;durP2;ratioP2;P2;SDS_P1;SDS_P2;PMS_P1;PMS_P2;Temp;Humidity;BMP_temperature;BMP_pressure;BME280_temperature;BME280_humidity;BME280_pressure;Samples;Min_cycle;Max_cycle;Signal;HPM_P1;HPM_P2
2021/06/08 00:01:34;;;;;;;15.70;14.15;;;;;;;19.23;66.88;100973.16;5013450;28;20054;-64
2021/06/08 00:04:01;;;;;;;14.75;13.15;;;;;;;19.21;67.04;100981.16;5013194;28;20061;-64
2021/06/08 00:06:28;;;;;;;14.55;13.18;;;;;;;19.18;67.16;100969.75;5013240;28;20076;-64
2021/06/08 00:08:55;;;;;;;15.80;14.20;;;;;;;19.15;67.41;100979.78;5013354;28;20192;-64
2021/06/08 00:11:23;;;;;;;15.43;13.93;;;;;;;19.14;67.74;100975.28;5013466;28;20053;-64
2021/06/08 00:13:51;;;;;;;14.85;13.13;;;;;;;19.13;67.45;100975.66;5018560;28;20475;-64
2021/06/08 00:16:17;;;;;;;15.00;13.48;;;;;;;19.15;67.17;100976.09;5015868;28;20061;-64
2021/06/08 00:18:44;;;;;;;15.00;13.60;;;;;;;19.16;67.21;100974.94;5032143;28;20057;-64
2021/06/08 00:21:11;;;;;;;14.55;13.10;;;;;;;19.17;67.19;100982.22;5033132;28;20056;-64
2021/06/08 00:23:38;;;;;;;13.43;12.30;;;;;;;19.19;66.98;100974.19;5022299;28;20060;-64
2021/06/08 00:26:05;;;;;;;14.70;12.93;;;;;;;19.19;67.05;100969.41;5022414;28;20057;-64
2021/06/08 00:28:33;;;;;;;14.65;13.15;;;;;;;19.20;67.16;100976.66;5033180;28;20056;-64
2021/06/08 00:31:00;;;;;;;15.60;13.13;;;;;;;19.16;67.11;100969.28;5018737;28;20059;-64
2021/06/08 00:33:27;;;;;;;14.48;13.05;;;;;;;19.12;67.45;100980.47;5013016;28;20065;-64
2021/06/08 00:35:54;;;;;;;13.90;12.70;;;;;;;19.16;67.14;100972.13;5013323;28;20376;-64
2021/06/08 00:38:21;;;;;;;14.30;12.93;;;;;;;19.16;67.17;100972.13;5012882;28;20415;-64
2021/06/08 00:40:48;;;;;;;13.85;12.57;;;;;;;19.14;67.34;100974.47;5021754;28;20053;-64
2021/06/08 00:43:15;;;;;;;14.30;12.90;;;;;;;19.16;67.27;100977.75;5032466;28;20076;-65
2021/06/08 00:45:43;;;;;;;13.45;12.10;;;;;;;19.11;67.41;100976.03;5032472;28;20049;-64
2021/06/08 00:48:10;;;;;;;14.55;12.88;;;;;;;19.09;67.78;100981.22;5032309;28;20060;-64
2021/06/08 00:50:37;;;;;;;13.98;12.60;;;;;;;19.10;67.57;100970.72;5032355;28;20061;-64
2021/06/08 00:53:04;;;;;;;14.70;13.40;;;;;;;19.10;67.71;100971.53;5032917;28;20050;-64
2021/06/08 00:55:30;;;;;;;14.57;13.23;;;;;;;19.11;67.91;100976.03;5022778;28;20392;-64
2021/06/08 00:57:57;;;;;;;15.05;13.05;;;;;;;19.11;67.94;100969.53;5016569;28;20053;-64
2021/06/08 01:00:25;;;;;;;13.98;12.57;;;;;;;19.10;67.93;100962.25;5032092;28;20070;-64
2021/06/08 01:02:53;;;;;;;15.52;13.95;;;;;;;19.11;67.87;100966.72;5032348;28;20049;-64
2021/06/08 01:05:20;;;;;;;15.15;13.63;;;;;;;19.12;68.08;100963.53;5032207;28;20056;-64
2021/06/08 01:07:49;;;;;;;15.13;13.65;;;;;;;19.11;67.85;100963.88;5032042;28;20064;-64
2021/06/08 01:10:16;;;;;;;14.77;13.40;;;;;;;19.15;67.44;100967.63;5032176;28;20053;-64
2021/06/08 01:12:43;;;;;;;15.40;13.98;;;;;;;19.13;67.55;100961.53;5028390;28;20068;-64
2021/06/08 01:15:10;;;;;;;15.00;13.50;;;;;;;19.13;67.50;100962.38;5012743;28;20494;-64
2021/06/08 01:17:37;;;;;;;14.68;13.18;;;;;;;19.14;67.43;100966.00;5012230;28;20058;-64
2021/06/08 01:20:08;;;;;;;14.52;13.00;;;;;;;19.10;67.77;100963.06;5012458;28;20065;-64
2021/06/08 01:22:36;;;;;;;15.00;13.55;;;;;;;19.10;68.01;100959.44;5012377;28;20415;-63
2021/06/08 01:25:04;;;;;;;14.93;13.43;;;;;;;19.07;67.91;100958.16;5024694;28;20050;-64
2021/06/08 01:27:32;;;;;;;15.52;14.13;;;;;;;19.08;67.96;100959.78;5032506;28;20060;-64
2021/06/08 01:29:59;;;;;;;15.15;13.63;;;;;;;19.04;68.04;100956.03;5028063;28;20165;-64
2021/06/08 01:32:28;;;;;;;15.27;13.63;;;;;;;19.05;67.87;100955.69;5016150;28;20089;-64
2021/06/08 01:34:56;;;;;;;15.18;13.77;;;;;;;19.04;67.82;100959.69;5016462;28;20073;-64
2021/06/08 01:37:24;;;;;;;15.05;13.65;;;;;;;19.07;67.83;100949.69;5015516;28;20070;-64
2021/06/08 01:39:53;;;;;;;15.60;14.02;;;;;;;19.09;67.73;100955.78;5015581;28;20054;-64
2021/06/08 01:42:20;;;;;;;15.80;14.23;;;;;;;19.08;67.63;100958.97;5016046;28;20058;-64
2021/06/08 01:44:47;;;;;;;14.75;13.45;;;;;;;19.05;67.98;100957.69;5016376;28;20053;-64
2021/06/08 01:47:14;;;;;;;14.88;13.38;;;;;;;19.01;67.80;100959.59;5015797;28;20054;-64
2021/06/08 01:49:42;;;;;;;14.80;13.38;;;;;;;19.00;68.05;100958.78;5015452;28;20057;-64
2021/06/08 01:52:17;;;;;;;14.20;13.00;;;;;;;19.00;68.25;100955.13;5015510;28;20050;-64
2021/06/08 01:54:49;;;;;;;14.77;13.38;;;;;;;18.99;68.14;100962.78;5016304;28;20495;-64
2021/06/08 01:57:22;;;;;;;15.93;14.05;;;;;;;19.01;68.27;100959.59;5021043;28;20525;-64
2021/06/08 01:59:57;;;;;;;15.02;13.63;;;;;;;18.99;68.14;100957.13;5035374;28;20049;-64
2021/06/08 02:02:30;;;;;;;14.57;13.15;;;;;;;19.02;67.99;100964.06;5034828;28;20054;-64
2021/06/08 02:05:04;;;;;;;14.68;13.27;;;;;;;19.00;67.97;100953.13;5035741;28;20108;-64
2021/06/08 02:07:44;;;;;;;15.55;14.02;;;;;;;19.04;67.76;100964.50;5035211;28;20057;-64
2021/06/08 02:10:32;;;;;;;16.77;15.13;;;;;;;18.94;68.34;100957.41;5032517;28;20406;-64
2021/06/08 02:13:11;;;;;;;16.95;15.25;;;;;;;18.93;68.32;100961.38;5035010;28;20053;-64
2021/06/08 02:15:43;;;;;;;15.15;13.57;;;;;;;18.96;68.27;100959.84;5035367;28;20061;-64
2021/06/08 02:18:16;;;;;;;15.60;14.15;;;;;;;18.95;68.25;100956.19;5035952;28;20049;-64
2021/06/08 02:20:47;;;;;;;16.90;15.18;;;;;;;18.94;68.55;100954.56;5034946;28;20060;-64
2021/06/08 02:23:16;;;;;;;17.23;15.52;;;;;;;18.94;68.21;100948.94;5033913;28;20054;-64
2021/06/08 02:25:44;;;;;;;17.02;15.32;;;;;;;18.90;68.49;100959.31;5033438;28;20410;-64
2021/06/08 02:28:15;;;;;;;17.20;15.02;;;;;;;18.90;68.64;100953.66;5035160;28;20053;-64
2021/06/08 02:30:44;;;;;;;16.70;15.20;;;;;;;18.92;68.31;100962.59;5021706;28;20077;-64
2021/06/08 02:33:11;;;;;;;16.83;15.40;;;;;;;18.92;68.23;100956.09;5015230;28;20069;-64
2021/06/08 02:35:39;;;;;;;17.00;15.40;;;;;;;18.92;68.06;100967.38;5015188;28;20057;-64
2021/06/08 02:38:07;;;;;;;17.30;15.50;;;;;;;18.88;68.48;100966.47;5015292;28;20057;-63
2021/06/08 02:40:34;;;;;;;18.10;16.40;;;;;;;18.85;68.74;100968.81;5013732;28;20057;-63
2021/06/08 02:43:02;;;;;;;19.40;17.60;;;;;;;18.83;68.92;100970.38;5015432;28;20065;-63
2021/06/08 02:45:32;;;;;;;18.35;16.15;;;;;;;18.85;68.87;100968.81;5015602;28;20065;-64
2021/06/08 02:48:00;;;;;;;18.45;16.60;;;;;;;18.84;68.95;100974.84;5015256;28;20057;-63
2021/06/08 02:50:28;;;;;;;19.15;17.20;;;;;;;18.83;68.81;100970.38;5014869;28;20054;-63
2021/06/08 02:52:56;;;;;;;17.63;15.75;;;;;;;18.83;68.90;100970.38;5016071;28;20054;-63
2021/06/08 02:55:26;;;;;;;17.42;15.75;;;;;;;18.82;69.13;100978.03;5015604;28;20053;-63
2021/06/08 02:57:57;;;;;;;18.25;16.45;;;;;;;18.85;69.20;100976.47;5010730;28;20063;-63
2021/06/08 03:00:25;;;;;;;18.80;16.98;;;;;;;18.88;68.60;100981.41;5015144;28;20098;-64
2021/06/08 03:02:57;;;;;;;18.40;16.50;;;;;;;18.84;68.98;100972.84;5014770;28;20057;-63
2021/06/08 03:05:27;;;;;;;19.40;17.48;;;;;;;18.82;68.74;100975.19;5015345;28;20399;-63
2021/06/08 03:08:02;;;;;;;18.15;16.45;;;;;;;18.81;68.97;100979.19;5015695;28;20045;-63
2021/06/08 03:10:33;;;;;;;17.73;15.90;;;;;;;18.81;69.24;100972.72;5034822;28;20060;-63
2021/06/08 03:13:01;;;;;;;18.33;16.52;;;;;;;18.81;69.21;100975.53;5034452;28;20471;-63
2021/06/08 03:15:34;;;;;;;17.77;16.10;;;;;;;18.79;69.07;100975.94;5033780;28;20056;-63
2021/06/08 03:18:05;;;;;;;21.20;15.98;;;;;;;18.81;69.17;100976.34;5033937;28;20053;-63
2021/06/08 03:20:35;;;;;;;17.13;15.48;;;;;;;18.80;69.06;100973.91;5034106;28;20060;-63
2021/06/08 03:23:05;;;;;;;17.05;15.38;;;;;;;18.82;69.01;100977.19;5027112;28;20073;-63
2021/06/08 03:25:33;;;;;;;16.80;15.07;;;;;;;18.82;69.06;100983.66;5013997;28;20053;-63
2021/06/08 03:28:00;;;;;;;16.73;15.02;;;;;;;18.85;68.80;100974.47;5033128;28;20056;-63
2021/06/08 03:30:29;;;;;;;18.10;15.50;;;;;;;18.84;68.76;100977.66;5024965;28;20050;-63
2021/06/08 03:32:56;;;;;;;16.40;14.97;;;;;;;18.83;68.83;100984.47;5014155;28;20050;-63
2021/06/08 03:35:27;;;;;;;17.13;15.43;;;;;;;18.85;68.63;100977.28;5014073;28;20050;-63
2021/06/08 03:37:54;;;;;;;17.17;15.07;;;;;;;18.81;68.89;100972.72;5014131;28;20502;-63
2021/06/08 03:40:22;;;;;;;16.88;15.25;;;;;;;18.83;68.80;100971.19;5013689;28;20131;-63
2021/06/08 03:42:51;;;;;;;17.33;15.60;;;;;;;18.85;68.69;100973.66;5030947;28;20049;-63
2021/06/08 03:45:18;;;;;;;19.42;17.45;;;;;;;18.85;68.62;100973.66;5033764;28;20057;-63
2021/06/08 03:47:46;;;;;;;18.05;16.30;;;;;;;18.88;68.76;100972.09;5033736;28;20053;-63
2021/06/08 03:50:15;;;;;;;19.10;17.13;;;;;;;18.91;68.60;100972.22;5033771;28;20056;-63
2021/06/08 03:52:49;;;;;;;18.95;16.65;;;;;;;18.92;68.71;100968.22;5033756;28;20057;-63
2021/06/08 03:55:20;;;;;;;20.92;18.83;;;;;;;18.95;68.51;100975.97;5033457;28;20411;-63
2021/06/08 03:57:51;;;;;;;20.60;18.50;;;;;;;18.98;68.49;100972.44;5028094;28;20050;-63
2021/06/08 04:00:20;;;;;;;23.05;20.58;;;;;;;19.00;68.15;100974.88;5013886;28;20057;-63
2021/06/08 04:02:47;;;;;;;20.52;18.48;;;;;;;19.07;68.20;100980.75;5013750;28;20053;-63
2021/06/08 04:05:15;;;;;;;22.95;20.75;;;;;;;19.14;67.87;100978.13;5013688;28;20054;-63
2021/06/08 04:07:46;;;;;;;21.70;19.60;;;;;;;19.17;67.64;100980.22;5014050;28;20057;-63
2021/06/08 04:10:17;;;;;;;22.25;19.85;;;;;;;19.22;67.19;100981.97;5013645;28;20053;-63
2021/06/08 04:12:44;;;;;;;22.17;19.92;;;;;;;19.26;67.56;100978.06;5017193;28;20041;-63
2021/06/08 04:15:13;;;;;;;24.33;22.02;;;;;;;19.35;66.75;100977.88;5033147;28;20053;-63
2021/06/08 04:17:40;;;;;;;25.05;21.23;;;;;;;19.35;66.82;100980.72;5032955;28;20056;-63
2021/06/08 04:20:09;;;;;;;23.75;21.17;;;;;;;19.44;66.58;100978.56;5033071;28;20380;-63
2021/06/08 04:22:38;;;;;;;24.95;22.45;;;;;;;19.51;66.29;100977.91;5033116;28;20514;-63
2021/06/08 04:25:08;;;;;;;25.30;22.90;;;;;;;19.59;65.53;100976.06;5017538;28;20056;-63
2021/06/08 04:27:35;;;;;;;25.30;22.85;;;;;;;19.63;65.50;100974.16;5013571;28;20062;-63
2021/06/08 04:30:06;;;;;;;24.73;22.17;;;;;;;19.72;65.26;100979.66;5012599;28;20050;-63
2021/06/08 04:32:34;;;;;;;25.25;22.75;;;;;;;19.79;64.88;100974.22;5006556;28;20050;-63
2021/06/08 04:35:01;;;;;;;25.90;23.08;;;;;;;19.79;64.66;100982.69;5013422;28;20057;-62
2021/06/08 04:37:28;;;;;;;25.58;22.98;;;;;;;19.86;64.36;100975.22;5012943;28;20054;-64
2021/06/08 04:39:55;;;;;;;24.98;22.50;;;;;;;19.91;64.02;100978.94;5027093;28;20057;-63
2021/06/08 04:42:24;;;;;;;24.13;21.83;;;;;;;19.99;63.97;100977.94;5032641;28;20068;-64
2021/06/08 04:44:52;;;;;;;26.20;23.43;;;;;;;20.05;64.17;100980.13;5032515;28;20057;-63
2021/06/08 04:47:21;;;;;;;24.25;21.85;;;;;;;20.21;63.24;100982.09;5032653;28;20495;-63
2021/06/08 04:49:48;;;;;;;24.58;22.05;;;;;;;20.28;62.85;100982.25;5032548;28;20056;-63
2021/06/08 04:52:16;;;;;;;26.55;23.95;;;;;;;20.33;62.55;100987.66;5032488;28;20410;-64
2021/06/08 04:54:43;;;;;;;25.92;23.25;;;;;;;20.35;62.38;100978.78;5016961;28;20054;-63
2021/06/08 04:57:12;;;;;;;24.67;22.08;;;;;;;20.39;62.24;100989.00;5012102;28;20430;-64
2021/06/08 04:59:48;;;;;;;26.48;23.73;;;;;;;20.41;61.85;100980.13;5012599;28;20076;-64
2021/06/08 05:02:20;;;;;;;26.40;23.60;;;;;;;20.50;61.97;100977.94;5013505;28;20494;-63
2021/06/08 05:04:46;;;;;;;24.58;22.17;;;;;;;20.56;61.61;100984.94;5014522;28;20053;-63
2021/06/08 05:07:17;;;;;;;24.88;22.27;;;;;;;20.70;61.08;100987.28;5016784;28;20061;-63
2021/06/08 05:09:47;;;;;;;23.38;20.98;;;;;;;20.77;61.12;100984.63;5013397;28;20513;-63
2021/06/08 05:12:17;;;;;;;22.58;20.30;;;;;;;20.80;61.20;100991.53;5033440;28;20049;-60
2021/06/08 05:14:50;;;;;;;20.90;18.75;;;;;;;20.89;61.03;100994.97;5018679;28;20049;-59
2021/06/08 05:17:19;;;;;;;21.70;19.70;;;;;;;20.93;60.67;100987.34;5026965;28;20045;-59
2021/06/08 05:19:48;;;;;;;21.50;19.50;;;;;;;21.07;60.39;100986.84;5021529;28;20046;-60
2021/06/08 05:22:18;;;;;;;22.55;20.25;;;;;;;21.26;59.57;100988.84;5031429;28;20046;-59
2021/06/08 05:24:49;;;;;;;22.52;20.13;;;;;;;21.34;59.35;100981.31;5034805;28;20061;-60
2021/06/08 05:27:16;;;;;;;20.65;18.60;;;;;;;21.43;59.13;100988.38;5036241;28;20053;-59
2021/06/08 05:29:43;;;;;;;22.38;20.02;;;;;;;21.62;58.92;100993.19;5032667;28;20085;-60
2021/06/08 05:32:12;;;;;;;21.98;19.77;;;;;;;21.70;58.35;100985.63;5015812;28;20403;-59
2021/06/08 05:34:41;;;;;;;22.17;19.80;;;;;;;21.87;57.62;100993.63;5019987;28;20490;-59
2021/06/08 05:37:10;;;;;;;21.60;19.42;;;;;;;22.00;56.75;100987.75;5036457;28;20060;-60
2021/06/08 05:39:39;;;;;;;21.05;18.92;;;;;;;22.16;56.22;100993.28;5035052;28;20053;-60
2021/06/08 05:42:10;;;;;;;20.30;18.30;;;;;;;22.33;55.73;101000.47;5035564;28;20049;-60
2021/06/08 05:44:38;;;;;;;20.48;18.38;;;;;;;22.39;55.40;100999.75;5022895;28;20487;-60
2021/06/08 05:47:06;;;;;;;20.75;18.75;;;;;;;22.47;55.08;100998.66;5015532;28;20049;-60
2021/06/08 05:49:38;;;;;;;21.13;18.95;;;;;;;22.42;54.76;101001.00;5016040;28;20058;-60
2021/06/08 05:52:07;;;;;;;21.55;19.35;;;;;;;22.54;55.19;101003.63;5035694;28;20053;-65
2021/06/08 05:54:35;;;;;;;21.42;19.23;;;;;;;22.60;54.49;100998.44;5034498;28;20470;-64
2021/06/08 05:57:03;;;;;;;20.17;18.23;;;;;;;22.63;54.11;101001.31;5018896;28;20058;-63
2021/06/08 05:59:30;;;;;;;20.25;18.25;;;;;;;22.65;53.96;101004.56;5030960;28;20411;-64
2021/06/08 06:01:57;;;;;;;20.08;17.42;;;;;;;22.66;53.46;100996.91;5035954;28;20374;-63
2021/06/08 06:04:25;;;;;;;19.05;17.10;;;;;;;22.61;52.44;100998.03;5016991;28;20053;-64
2021/06/08 06:06:53;;;;;;;18.60;16.40;;;;;;;22.69;52.41;101002.59;5015152;28;20064;-64
2021/06/08 06:09:23;;;;;;;19.60;17.00;;;;;;;22.69;52.27;100999.75;5034222;28;20061;-65
2021/06/08 06:11:53;;;;;;;17.23;15.52;;;;;;;22.78;51.99;101008.00;5035591;28;20058;-65
2021/06/08 06:14:22;;;;;;;17.95;16.23;;;;;;;22.93;51.39;100997.66;5032254;28;20509;-65
2021/06/08 06:16:52;;;;;;;17.33;15.60;;;;;;;23.10;50.78;101002.78;5019546;28;20414;-66
2021/06/08 06:19:21;;;;;;;16.45;14.52;;;;;;;23.28;50.10;100999.31;5034384;28;20054;-65
2021/06/08 06:21:49;;;;;;;;;;;;;;;23.42;50.72;100996.63;5016763;28;20058;-65
2021/06/08 06:24:24;;;;;;;16.20;14.65;;;;;;;23.56;49.65;100998.81;5030879;28;19921;-66
2021/06/08 06:26:51;;;;;;;16.55;14.68;;;;;;;23.67;48.83;100991.19;5022347;28;20049;-65
2021/06/08 06:29:19;;;;;;;16.17;14.38;;;;;;;23.74;48.96;100995.31;5022085;28;20050;-65
2021/06/08 06:31:47;;;;;;;17.15;15.35;;;;;;;23.77;49.29;100995.38;5033413;28;20059;-65
2021/06/08 06:34:16;;;;;;;17.38;15.68;;;;;;;23.83;48.63;101001.50;5032785;28;20072;-65
2021/06/08 06:36:46;;;;;;;16.65;14.95;;;;;;;24.01;48.11;100999.66;5033741;28;20057;-65
2021/06/08 06:39:18;;;;;;;16.60;14.95;;;;;;;24.19;47.84;101004.66;5033024;28;20049;-65
2021/06/08 06:41:48;;;;;;;16.40;14.88;;;;;;;24.38;47.47;101001.56;5032815;28;20064;-65
2021/06/08 06:44:18;;;;;;;16.13;14.50;;;;;;;24.60;47.47;101001.72;5031481;28;20049;-66
2021/06/08 06:46:46;;;;;;;16.95;15.23;;;;;;;24.85;45.90;101002.66;5018145;28;20046;-66
2021/06/08 06:49:13;;;;;;;15.40;13.88;;;;;;;25.05;45.25;100997.47;5031651;28;20057;-65
2021/06/08 06:51:44;;;;;;;13.63;12.30;;;;;;;25.14;44.87;100991.38;5030791;28;20053;-65
2021/06/08 06:54:11;;;;;;;13.80;12.40;;;;;;;25.35;44.36;100996.38;5028704;28;20052;-65
2021/06/08 06:56:39;;;;;;;13.55;12.13;;;;;;;25.49;44.17;100999.25;5031323;28;20045;-65
2021/06/08 06:59:07;;;;;;;14.43;13.02;;;;;;;25.56;43.52;101001.28;5020680;28;20073;-66
2021/06/08 07:01:35;;;;;;;13.13;11.80;;;;;;;25.66;42.73;101005.38;5003409;28;20402;-66
2021/06/08 07:04:04;;;;;;;9.85;8.85;;;;;;;25.76;41.04;100998.84;5006620;28;20065;-66
2021/06/08 07:06:32;;;;;;;11.23;9.88;;;;;;;25.78;40.89;101004.97;5012559;28;20069;-66
2021/06/08 07:09:01;;;;;;;10.50;9.07;;;;;;;25.74;41.88;101007.00;5005537;28;20478;-66
2021/06/08 07:11:29;;;;;;;10.93;9.38;;;;;;;25.81;40.69;100995.63;5010743;28;20068;-66
2021/06/08 07:14:01;;;;;;;8.67;7.77;;;;;;;25.70;40.80;101004.19;4991121;28;20046;-66
2021/06/08 07:16:28;;;;;;;8.73;7.43;;;;;;;25.71;41.28;101002.94;5033621;28;20061;-66
2021/06/08 07:18:55;;;;;;;9.43;8.13;;;;;;;25.89;39.78;101003.00;5024323;28;20053;-66
2021/06/08 07:21:23;;;;;;;8.70;7.85;;;;;;;25.94;39.02;101003.81;5031770;28;20398;-66
2021/06/08 07:23:53;;;;;;;8.55;7.75;;;;;;;26.08;38.63;100998.06;5034098;28;20060;-66
2021/06/08 07:26:20;;;;;;;8.52;7.63;;;;;;;26.19;39.82;101007.47;5024138;28;20046;-66
2021/06/08 07:28:47;;;;;;;9.80;8.82;;;;;;;26.40;38.97;101008.69;5033512;28;20487;-66
2021/06/08 07:31:23;;;;;;;8.82;7.78;;;;;;;26.51;38.57;101003.75;5019340;28;20057;-66
2021/06/08 07:33:57;;;;;;;9.13;8.23;;;;;;;26.74;38.52;101006.16;5027456;28;20045;-65
2021/06/08 07:36:28;;;;;;;7.85;7.00;;;;;;;26.80;37.42;101012.28;5032917;28;20053;-65
2021/06/08 07:39:00;;;;;;;8.60;7.70;;;;;;;27.01;36.40;101009.34;5032677;28;20081;-65
2021/06/08 07:41:34;;;;;;;8.18;7.38;;;;;;;27.14;36.22;101013.34;5029428;28;20049;-65
2021/06/08 07:44:05;;;;;;;10.25;7.63;;;;;;;27.40;35.64;101005.47;5020335;28;20046;-65
2021/06/08 07:46:37;;;;;;;9.38;7.70;;;;;;;27.70;35.32;101015.53;5030489;28;20060;-65
2021/06/08 07:49:10;;;;;;;8.27;7.22;;;;;;;28.05;35.63;101005.84;5018695;28;20050;-66
2021/06/08 07:51:40;;;;;;;10.50;7.32;;;;;;;28.39;33.38;101004.31;5033890;28;20053;-66
2021/06/08 07:54:08;;;;;;;8.48;7.38;;;;;;;28.58;33.39;101003.75;5033643;28;20049;-66
2021/06/08 07:56:37;;;;;;;8.80;7.10;;;;;;;28.98;32.16;101012.72;5017600;28;20126;-66
2021/06/08 07:59:04;;;;;;;7.15;6.45;;;;;;;28.92;32.44;101003.75;5015442;28;20054;-66
2021/06/08 08:01:34;;;;;;;8.20;6.75;;;;;;;28.79;32.95;101010.47;4999082;28;20480;-66
2021/06/08 08:04:07;;;;;;;7.80;7.00;;;;;;;28.59;32.96;101007.44;5005052;28;20057;-66
2021/06/08 08:06:34;;;;;;;9.05;7.95;;;;;;;28.38;32.78;101003.50;4994661;28;20050;-66
2021/06/08 08:09:03;;;;;;;7.60;6.85;;;;;;;27.99;33.48;101016.16;5008569;28;20054;-66
2021/06/08 08:11:32;;;;;;;9.10;6.55;;;;;;;27.77;34.65;101015.47;5005171;28;20059;-66
2021/06/08 08:14:03;;;;;;;6.80;5.88;;;;;;;27.70;33.71;101015.53;5004102;28;20050;-66
2021/06/08 08:16:31;;;;;;;7.60;6.88;;;;;;;27.88;33.31;101027.69;5006357;28;20054;-66
2021/06/08 08:19:00;;;;;;;7.25;6.35;;;;;;;28.07;33.52;101016.91;5013673;28;20054;-65
2021/06/08 08:21:26;;;;;;;;;;;;;;;28.27;34.32;101020.81;5008309;28;20050;-66
2021/06/08 08:23:53;;;;;;;7.35;6.65;;;;;;;28.49;32.81;101021.44;5018287;28;19925;-66
2021/06/08 08:26:20;;;;;;;8.20;6.95;;;;;;;28.92;31.80;101032.44;5032453;28;20049;-66
2021/06/08 08:28:49;;;;;;;8.18;6.78;;;;;;;30.71;29.81;101028.91;5031697;28;20045;-66
2021/06/08 08:31:18;;;;;;;7.15;6.25;;;;;;;30.89;29.16;101017.06;5031380;28;20060;-66
2021/06/08 08:33:46;;;;;;;8.20;6.43;;;;;;;31.55;28.55;101023.06;5032107;28;20376;-66
2021/06/08 08:36:14;;;;;;;6.53;5.90;;;;;;;31.40;27.47;101025.44;5031034;28;20060;-66
2021/06/08 08:38:41;;;;;;;7.43;6.03;;;;;;;31.48;28.07;101021.19;5031766;28;20403;-66
2021/06/08 08:41:09;;;;;;;7.20;6.50;;;;;;;31.58;27.61;101022.16;5036772;28;20058;-66
2021/06/08 08:43:36;;;;;;;5.78;5.28;;;;;;;31.86;27.50;101020.69;5035389;28;20068;-66
2021/06/08 08:46:04;;;;;;;5.47;4.85;;;;;;;31.99;25.98;101023.69;5017609;28;20046;-66
2021/06/08 08:48:32;;;;;;;5.35;4.78;;;;;;;32.12;26.86;101021.69;5033665;28;20064;-66
2021/06/08 08:50:59;;;;;;;5.20;4.70;;;;;;;32.48;25.62;101014.19;5024261;28;20057;-66
2021/06/08 08:53:28;;;;;;;5.68;4.80;;;;;;;33.82;24.87;101018.47;5006051;28;20396;-66
2021/06/08 08:55:55;;;;;;;4.38;3.97;;;;;;;34.50;24.24;101004.63;5008288;28;20050;-66
2021/06/08 08:58:26;;;;;;;5.40;4.90;;;;;;;34.23;22.86;101008.06;5003686;28;20057;-66
2021/06/08 09:00:56;;;;;;;6.13;5.53;;;;;;;33.89;23.47;101006.69;5015940;28;20057;-66
2021/06/08 09:03:25;;;;;;;3.35;3.05;;;;;;;33.31;23.46;101001.91;5012809;28;20509;-66
2021/06/08 09:05:53;;;;;;;;;;;;;;;32.84;24.50;100993.81;5014619;28;20475;-66
2021/06/08 09:08:20;;;;;;;4.57;3.85;;;;;;;32.58;24.42;101007.34;5016638;28;19929;-66
2021/06/08 09:10:49;;;;;;;5.32;4.00;;;;;;;32.17;24.58;101003.03;5014688;28;20046;-66
2021/06/08 09:13:16;;;;;;;4.50;3.70;;;;;;;31.60;26.29;101007.31;5008196;28;20046;-66
2021/06/08 09:15:43;;;;;;;4.40;4.00;;;;;;;31.24;26.93;101002.34;5006655;28;20047;-66
2021/06/08 09:18:11;;;;;;;4.70;4.22;;;;;;;30.81;28.18;101006.13;5017036;28;20060;-66
2021/06/08 09:20:38;;;;;;;4.55;4.10;;;;;;;30.51;26.99;101002.19;5015682;28;20061;-66
2021/06/08 09:23:07;;;;;;;5.22;4.22;;;;;;;30.21;28.67;101001.06;5008876;28;20054;-65
2021/06/08 09:25:42;;;;;;;4.50;4.07;;;;;;;29.81;28.92;101002.97;5008214;28;20054;-65
2021/06/08 09:28:35;;;;;;;4.60;4.18;;;;;;;29.54;28.71;101000.91;5013018;28;20061;-66
2021/06/08 09:31:05;;;;;;;4.50;4.00;;;;;;;29.35;29.74;101002.41;5005274;28;20415;-65
2021/06/08 09:33:34;;;;;;;4.38;3.90;;;;;;;29.22;30.31;100998.50;5003189;28;20055;-65
2021/06/08 09:36:04;;;;;;;5.97;4.20;;;;;;;29.17;29.94;100990.34;5012587;28;20137;-65
2021/06/08 09:38:44;;;;;;;4.75;3.95;;;;;;;29.11;30.18;100990.03;4996351;28;20088;-65
2021/06/08 09:41:19;;;;;;;4.72;4.32;;;;;;;29.07;31.27;100992.91;5002255;28;20061;-65
2021/06/08 09:44:03;;;;;;;5.10;4.38;;;;;;;29.04;31.64;100992.94;5007869;28;20046;-65
2021/06/08 09:46:37;;;;;;;6.05;4.68;;;;;;;29.21;31.80;100991.13;5007721;28;20061;-65
2021/06/08 09:49:06;;;;;;;5.68;4.70;;;;;;;29.38;30.49;100990.06;5005873;28;20050;-65
2021/06/08 09:51:53;;;;;;;6.15;5.55;;;;;;;29.50;30.26;100988.66;5024951;28;20483;-65
2021/06/08 09:54:29;;;;;;;6.82;5.65;;;;;;;29.74;30.67;100983.81;5031298;28;20475;-65
2021/06/08 09:57:12;;;;;;;7.50;6.15;;;;;;;30.20;30.00;100976.47;5030748;28;20060;-65
2021/06/08 09:59:42;;;;;;;7.63;6.43;;;;;;;30.57;30.51;100991.78;5017925;28;20050;-65
2021/06/08 10:02:24;;;;;;;9.07;6.95;;;;;;;31.36;30.33;100990.16;5030401;28;20049;-65
2021/06/08 10:04:51;;;;;;;8.68;7.88;;;;;;;33.50;25.89;100990.63;5033190;28;20411;-66
2021/06/08 10:07:28;;;;;;;7.25;6.55;;;;;;;34.04;25.01;100991.75;5033696;28;20057;-66
2021/06/08 10:10:07;;;;;;;7.65;6.85;;;;;;;34.52;24.08;100989.66;5019851;28;20383;-66
2021/06/08 10:12:34;;;;;;;7.30;6.60;;;;;;;34.79;23.21;100982.50;5024355;28;20398;-65
2021/06/08 10:15:12;;;;;;;7.30;6.60;;;;;;;34.70;22.79;100978.28;5030229;28;20049;-66
2021/06/08 10:17:39;;;;;;;7.75;6.97;;;;;;;33.93;23.92;100980.53;5034796;28;20379;-66
2021/06/08 10:20:25;;;;;;;6.90;6.20;;;;;;;33.73;25.02;100978.72;5025122;28;20061;-66
2021/06/08 10:22:52;;;;;;;6.53;5.72;;;;;;;33.30;24.95;100976.38;5005145;28;20057;-66
2021/06/08 10:25:19;;;;;;;7.25;6.55;;;;;;;33.05;24.69;100975.03;5025284;28;20050;-66
2021/06/08 10:27:46;;;;;;;6.72;6.13;;;;;;;32.66;25.57;100973.34;5006949;28;20407;-66
2021/06/08 10:30:16;;;;;;;6.60;5.90;;;;;;;32.30;25.71;100980.88;5031538;28;20364;-66
2021/06/08 10:32:43;;;;;;;6.07;5.47;;;;;;;31.98;25.46;100975.91;5033452;28;20050;-66
2021/06/08 10:35:11;;;;;;;6.68;4.97;;;;;;;31.62;26.25;100978.91;5022520;28;20412;-66
2021/06/08 10:37:38;;;;;;;5.55;4.85;;;;;;;31.10;26.47;100975.53;5019240;28;20065;-66
2021/06/08 10:40:09;;;;;;;5.95;5.18;;;;;;;30.75;27.34;100975.00;5025457;28;20064;-66
2021/06/08 10:42:36;;;;;;;6.93;5.20;;;;;;;30.55;27.49;100975.00;5030789;28;20052;-66
2021/06/08 10:45:09;;;;;;;5.95;4.78;;;;;;;30.28;28.12;100975.06;5029536;28;20049;-66
2021/06/08 10:47:43;;;;;;;6.50;4.97;;;;;;;30.10;27.97;100968.84;5019545;28;20427;-66
2021/06/08 10:50:23;;;;;;;7.63;5.40;;;;;;;29.92;28.53;100972.00;5030369;28;20060;-66
2021/06/08 10:52:50;;;;;;;6.38;5.18;;;;;;;29.85;29.35;100966.41;5021926;28;20405;-65
2021/06/08 10:55:24;;;;;;;7.15;5.70;;;;;;;29.90;29.51;100969.59;5031064;28;20470;-66
2021/06/08 10:57:51;;;;;;;7.10;5.78;;;;;;;29.78;29.14;100975.94;5026438;28;20402;-66
2021/06/08 11:00:38;;;;;;;7.45;5.50;;;;;;;29.74;29.08;100973.13;5029468;28;20057;-66
2021/06/08 11:03:08;;;;;;;6.80;5.43;;;;;;;29.57;29.18;100977.06;5024584;28;20054;-66
2021/06/08 11:05:50;;;;;;;6.75;5.97;;;;;;;29.37;31.21;100973.28;5009380;28;20054;-65
2021/06/08 11:08:18;;;;;;;5.82;5.25;;;;;;;28.98;31.36;100977.47;5020742;28;20053;-65
2021/06/08 11:10:57;;;;;;;7.15;6.45;;;;;;;28.59;32.26;100976.72;5024974;28;20054;-65
2021/06/08 11:13:43;;;;;;;7.40;6.13;;;;;;;28.52;31.76;100979.66;5021568;28;20489;-64
2021/06/08 11:16:33;;;;;;;9.15;6.95;;;;;;;28.22;31.59;100972.56;4990133;28;20065;-65
2021/06/08 11:19:03;;;;;;;7.65;6.82;;;;;;;28.37;31.73;100972.41;5001898;28;20045;-65
2021/06/08 11:21:36;;;;;;;7.88;6.90;;;;;;;28.03;31.80;100968.22;5005517;28;20050;-65
2021/06/08 11:24:03;;;;;;;7.63;6.93;;;;;;;30.27;29.17;100967.69;4993224;28;20515;-65
2021/06/08 11:26:51;;;;;;;6.32;5.68;;;;;;;31.95;26.65;100976.84;5004329;28;20391;-65
2021/06/08 11:29:45;;;;;;;6.90;5.80;;;;;;;33.96;24.20;100965.19;5013721;28;20057;-65